Time;durP1;ratioP1;P1;durP2;ratioP2;P2;SDS_P1;SDS_P2;PMS_P1;PMS_P2;Temp;Humidity;BMP_temperature;BMP_pressure;BME280_temperature;BME280_humidity;BME280_pressure;Samples;Min_cycle;Max_cycle;Signal;HPM_P1;HPM_P2
2023/05/01 00:00:04;;;;;;;16.93;10.30;;;;;;;9.66;89.50;93387.84;514162;28;875;-47
2023/05/01 00:00:20;;;;;;;14.07;11.13;;;;;;;9.64;89.51;93391.16;514051;28;842;-47
2023/05/01 00:00:36;;;;;;;14.17;12.37;;;;;;;9.58;88.94;93389.81;514070;28;895;-48
2023/05/01 00:00:52;;;;;;;16.65;14.32;;;;;;;9.52;88.72;93390.00;514269;28;1143;-49
2023/05/01 00:01:07;;;;;;;20.15;17.27;;;;;;;9.40;88.92;93382.56;516023;28;908;-48
2023/05/01 00:01:22;;;;;;;21.03;18.60;;;;;;;9.41;88.84;93390.28;515508;28;1394;-48
2023/05/01 00:01:38;;;;;;;21.25;19.00;;;;;;;9.33;88.78;93395.03;513978;28;1405;-48
2023/05/01 00:01:53;;;;;;;16.70;14.97;;;;;;;9.28;88.73;93387.66;514130;28;782;-48
2023/05/01 00:02:09;;;;;;;12.13;10.70;;;;;;;9.31;88.80;93385.81;514012;28;939;-49
2023/05/01 00:02:24;;;;;;;10.60;9.10;;;;;;;9.33;88.87;93397.03;514716;28;1341;-48
2023/05/01 00:02:39;;;;;;;7.88;7.00;;;;;;;9.36;89.17;93393.19;516001;28;872;-48
2023/05/01 00:02:55;;;;;;;7.23;6.37;;;;;;;9.39;88.66;93390.09;515962;28;825;-48
2023/05/01 00:03:11;;;;;;;7.07;5.80;;;;;;;9.36;88.88;93385.66;515892;28;1135;-48
2023/05/01 00:03:26;;;;;;;6.63;5.47;;;;;;;9.44;88.48;93391.22;515421;28;865;-47
2023/05/01 00:03:41;;;;;;;6.43;5.60;;;;;;;9.48;88.47;93397.13;514805;28;1923;-47
2023/05/01 00:03:57;;;;;;;6.13;5.57;;;;;;;9.50;88.32;93389.78;514975;28;841;-48
2023/05/01 00:04:13;;;;;;;6.47;5.77;;;;;;;9.53;88.06;93393.50;513835;28;828;-48
2023/05/01 00:04:29;;;;;;;6.43;5.75;;;;;;;9.29;87.46;93355.31;513785;28;1143;-48
2023/05/01 00:04:44;;;;;;;5.75;5.13;;;;;;;9.58;87.38;93387.06;515902;28;838;-49
2023/05/01 00:05:00;;;;;;;5.60;4.70;;;;;;;9.60;87.48;93387.25;515929;28;882;-49
2023/05/01 00:05:15;;;;;;;5.17;4.63;;;;;;;9.62;87.20;93392.97;515890;28;882;-48
2023/05/01 00:05:31;;;;;;;5.30;4.55;;;;;;;9.64;86.82;93390.41;515400;28;877;-49
2023/05/01 00:05:47;;;;;;;5.63;4.90;;;;;;;9.61;86.52;93383.97;513877;28;943;-48
2023/05/01 00:06:06;;;;;;;5.78;5.10;;;;;;;9.62;86.21;93387.44;514642;28;1191;-47
2023/05/01 00:06:22;;;;;;;6.18;5.15;;;;;;;9.46;86.54;93386.66;514346;28;1640;-48
2023/05/01 00:06:37;;;;;;;8.17;5.47;;;;;;;9.38;86.78;93385.13;513987;28;897;-47
2023/05/01 00:06:53;;;;;;;8.88;5.70;;;;;;;9.27;87.32;93379.94;514065;28;996;-48
2023/05/01 00:07:08;;;;;;;6.77;5.70;;;;;;;9.22;87.49;93386.31;514048;28;860;-48
2023/05/01 00:07:28;;;;;;;7.50;5.57;;;;;;;9.13;88.33;93382.78;514132;28;880;-48
2023/05/01 00:07:43;;;;;;;7.80;5.70;;;;;;;9.03;89.21;93387.28;515672;28;1013;-48
2023/05/01 00:07:59;;;;;;;7.20;5.75;;;;;;;8.97;89.42;93385.94;516110;28;817;-48
2023/05/01 00:08:14;;;;;;;6.77;5.67;;;;;;;8.85;90.32;93379.25;516098;28;808;-48
2023/05/01 00:08:31;;;;;;;6.38;5.55;;;;;;;8.87;90.60;93393.22;516034;28;833;-47
2023/05/01 00:08:46;;;;;;;6.25;5.65;;;;;;;8.90;90.99;93386.66;515897;28;861;-48
2023/05/01 00:09:02;;;;;;;5.90;5.40;;;;;;;8.95;91.21;93388.50;514860;28;1679;-48
2023/05/01 00:09:17;;;;;;;8.30;6.03;;;;;;;8.98;91.50;93388.19;514493;28;884;-49
2023/05/01 00:09:33;;;;;;;10.27;6.93;;;;;;;8.99;91.46;93394.41;513862;28;1496;-48
2023/05/01 00:09:50;;;;;;;9.98;7.28;;;;;;;9.01;91.52;93387.09;514117;28;814;-49
2023/05/01 00:10:06;;;;;;;10.13;7.18;;;;;;;9.06;91.47;93391.72;514010;28;893;-48
2023/05/01 00:10:21;;;;;;;10.40;8.45;;;;;;;9.10;91.36;93388.63;514013;28;900;-48
2023/05/01 00:10:37;;;;;;;8.77;7.87;;;;;;;9.12;91.09;93386.81;515069;28;1077;-48
2023/05/01 00:10:53;;;;;;;6.82;5.57;;;;;;;9.15;90.88;93391.25;516077;28;854;-48
2023/05/01 00:11:10;;;;;;;7.97;6.10;;;;;;;9.18;91.05;93383.91;515975;28;824;-49
2023/05/01 00:11:25;;;;;;;7.10;6.35;;;;;;;9.23;90.53;93396.03;516053;28;842;-49
2023/05/01 00:11:41;;;;;;;7.73;6.47;;;;;;;9.23;90.50;93385.75;514809;28;1671;-48
2023/05/01 00:11:56;;;;;;;8.52;7.00;;;;;;;9.25;89.97;93391.47;515988;28;900;-48
2023/05/01 00:12:11;;;;;;;8.57;7.17;;;;;;;9.26;89.91;93387.44;514750;28;1107;-49
2023/05/01 00:12:27;;;;;;;9.18;7.30;;;;;;;9.29;89.57;93391.84;513964;28;880;-48
2023/05/01 00:12:42;;;;;;;8.57;7.67;;;;;;;9.33;89.66;93391.53;513930;28;872;-49
2023/05/01 00:12:57;;;;;;;8.30;7.50;;;;;;;9.32;88.85;93387.28;514070;28;856;-48
2023/05/01 00:13:13;;;;;;;8.52;6.93;;;;;;;9.33;88.71;93391.53;514155;28;792;-49
2023/05/01 00:13:29;;;;;;;8.53;6.83;;;;;;;9.28;88.49;93390.41;513987;28;1190;-49
2023/05/01 00:13:44;;;;;;;8.02;7.22;;;;;;;9.22;88.44;93389.06;515987;28;1012;-49
2023/05/01 00:13:59;;;;;;;8.33;7.37;;;;;;;9.16;88.39;93387.19;515979;28;919;-49
2023/05/01 00:14:15;;;;;;;8.83;7.63;;;;;;;9.08;88.38;93386.41;515980;28;1092;-48
2023/05/01 00:14:30;;;;;;;8.95;7.85;;;;;;;9.11;88.16;93392.84;515257;28;1465;-49
2023/05/01 00:14:46;;;;;;;9.07;7.40;;;;;;;9.10;88.37;93391.38;514827;28;791;-48
2023/05/01 00:15:01;;;;;;;9.65;7.35;;;;;;;9.12;88.32;93392.31;515412;28;1732;-48
2023/05/01 00:15:17;;;;;;;11.37;7.73;;;;;;;9.15;88.71;93390.50;515258;28;1059;-48
2023/05/01 00:15:32;;;;;;;11.98;8.05;;;;;;;9.14;88.33;93395.25;515716;28;824;-47
2023/05/01 00:15:48;;;;;;;11.70;8.80;;;;;;;9.10;88.18;93391.38;514069;28;797;-48
2023/05/01 00:16:10;;;;;;;12.70;10.30;;;;;;;8.93;88.44;93385.56;514128;28;768;-49
2023/05/01 00:16:25;;;;;;;12.23;11.02;;;;;;;9.01;88.31;93389.09;514495;28;1649;-48
2023/05/01 00:16:41;;;;;;;12.37;11.07;;;;;;;9.04;88.80;93390.78;517211;28;1209;-49
2023/05/01 00:16:56;;;;;;;13.40;11.13;;;;;;;9.07;88.79;93395.22;515841;28;829;-48
2023/05/01 00:17:12;;;;;;;13.87;11.00;;;;;;;9.10;88.59;93400.38;515899;28;935;-48
2023/05/01 00:17:29;;;;;;;13.40;9.83;;;;;;;9.13;88.63;93393.81;515862;28;872;-47
2023/05/01 00:17:45;;;;;;;11.35;9.20;;;;;;;9.18;88.65;93394.19;515810;28;962;-49
2023/05/01 00:18:01;;;;;;;9.90;8.90;;;;;;;9.21;88.67;93396.59;515896;28;860;-48
2023/05/01 00:18:16;;;;;;;10.63;8.98;;;;;;;9.24;88.51;93401.03;514521;28;1182;-48
2023/05/01 00:18:32;;;;;;;11.50;9.03;;;;;;;9.27;88.13;93397.19;514093;28;848;-47
2023/05/01 00:18:47;;;;;;;9.82;8.05;;;;;;;9.29;88.03;93399.41;513533;28;1262;-48
2023/05/01 00:19:03;;;;;;;9.50;7.80;;;;;;;9.32;87.76;93401.06;514114;28;805;-47
2023/05/01 00:19:19;;;;;;;9.82;8.05;;;;;;;9.33;88.00;93397.78;513921;28;911;-48
2023/05/01 00:19:34;;;;;;;9.80;8.48;;;;;;;9.34;87.69;93396.50;513836;28;887;-48
2023/05/01 00:19:51;;;;;;;10.00;8.63;;;;;;;9.37;87.65;93397.44;515179;28;1382;-47
2023/05/01 00:20:07;;;;;;;10.10;8.32;;;;;;;9.37;87.47;93400.19;515833;28;859;-47
2023/05/01 00:20:29;;;;;;;9.88;8.15;;;;;;;9.38;87.34;93398.88;515855;28;856;-48
2023/05/01 00:20:44;;;;;;;9.93;8.80;;;;;;;9.40;87.07;93404.63;515769;28;860;-49
2023/05/01 00:21:00;;;;;;;9.63;8.50;;;;;;;9.38;86.83;93402.38;515854;28;850;-48
2023/05/01 00:21:15;;;;;;;10.35;8.73;;;;;;;9.40;86.83;93399.09;515804;28;1072;-48
2023/05/01 00:21:31;;;;;;;13.37;8.90;;;;;;;9.38;86.63;93407.16;516067;28;848;-47
2023/05/01 00:21:47;;;;;;;12.13;8.27;;;;;;;9.28;86.42;93395.16;515755;28;891;-48
2023/05/01 00:22:02;;;;;;;9.15;8.10;;;;;;;9.29;86.36;93399.41;514125;28;827;-48
2023/05/01 00:22:17;;;;;;;9.27;8.13;;;;;;;9.29;86.22;93402.16;514073;28;813;-48
2023/05/01 00:22:33;;;;;;;9.20;8.20;;;;;;;9.28;86.54;93403.44;514012;28;836;-48
2023/05/01 00:22:48;;;;;;;12.27;8.30;;;;;;;9.29;86.71;93407.66;515367;28;1072;-47
2023/05/01 00:23:04;;;;;;;15.17;8.63;;;;;;;9.26;86.61;93406.00;516097;28;848;-47
2023/05/01 00:23:19;;;;;;;12.33;8.97;;;;;;;9.25;86.69;93401.78;515859;28;1740;-48
2023/05/01 00:23:35;;;;;;;9.90;8.48;;;;;;;9.13;86.36;93382.78;515933;28;1920;-48
2023/05/01 00:23:50;;;;;;;10.63;8.77;;;;;;;9.29;86.31;93404.91;516093;28;855;-46
2023/05/01 00:24:06;;;;;;;10.85;9.25;;;;;;;9.31;86.37;93403.09;516020;28;842;-48
2023/05/01 00:24:21;;;;;;;9.95;8.90;;;;;;;9.35;86.36;93402.75;514027;28;1159;-46
2023/05/01 00:24:37;;;;;;;10.13;8.70;;;;;;;9.36;86.24;93404.94;513987;28;931;-47
2023/05/01 00:24:52;;;;;;;10.88;8.75;;;;;;;9.38;86.16;93407.91;514003;28;966;-48
2023/05/01 00:25:09;;;;;;;10.43;8.87;;;;;;;9.42;85.69;93408.28;513838;28;833;-47
2023/05/01 00:25:24;;;;;;;9.02;8.05;;;;;;;9.45;85.71;93411.97;513860;28;942;-47
2023/05/01 00:25:40;;;;;;;8.93;7.70;;;;;;;9.46;85.38;93405.19;513731;28;1203;-48
2023/05/01 00:25:55;;;;;;;8.85;7.95;;;;;;;9.46;85.00;93408.69;513818;28;849;-47
2023/05/01 00:26:11;;;;;;;8.77;7.87;;;;;;;9.48;84.96;93411.66;513815;28;915;-47
2023/05/01 00:26:29;;;;;;;8.87;7.73;;;;;;;9.49;85.06;93412.38;513675;28;1718;-47
2023/05/01 00:26:45;;;;;;;8.55;7.68;;;;;;;9.43;84.63;93392.50;513780;28;898;-47
2023/05/01 00:27:00;;;;;;;8.90;7.87;;;;;;;9.49;84.68;93404.09;513832;28;1051;-47
2023/05/01 00:27:16;;;;;;;8.68;7.40;;;;;;;9.49;84.99;93404.09;515021;28;1152;-47
2023/05/01 00:27:31;;;;;;;8.93;7.93;;;;;;;9.48;84.91;93406.13;516126;28;793;-48
2023/05/01 00:27:47;;;;;;;9.43;8.43;;;;;;;9.48;84.69;93416.41;516014;28;911;-48
2023/05/01 00:28:03;;;;;;;9.80;8.45;;;;;;;9.48;84.56;93408.16;516045;28;930;-48
2023/05/01 00:28:18;;;;;;;13.77;9.07;;;;;;;9.40;84.51;93407.38;516055;28;851;-47
2023/05/01 00:28:34;;;;;;;17.15;8.88;;;;;;;9.40;84.55;93415.66;516100;28;853;-47
2023/05/01 00:28:49;;;;;;;17.27;9.07;;;;;;;9.42;84.65;93413.09;515828;28;1153;-48
2023/05/01 00:29:05;;;;;;;14.23;9.13;;;;;;;9.42;85.00;93413.09;516099;28;801;-47
2023/05/01 00:29:20;;;;;;;11.90;7.93;;;;;;;9.39;84.67;93409.38;516064;28;805;-47
2023/05/01 00:29:35;;;;;;;9.93;7.57;;;;;;;9.42;84.97;93407.56;516016;28;818;-47
2023/05/01 00:29:51;;;;;;;10.03;8.23;;;;;;;9.40;84.96;93408.09;515931;28;1084;-48
2023/05/01 00:30:07;;;;;;;11.25;8.43;;;;;;;9.40;85.20;93404.63;516004;28;802;-48
2023/05/01 00:30:22;;;;;;;15.98;8.68;;;;;;;9.33;84.90;93402.56;515977;28;932;-48
2023/05/01 00:30:39;;;;;;;20.37;10.00;;;;;;;9.37;85.17;93405.69;516054;28;844;-47
2023/05/01 00:30:56;;;;;;;25.10;11.18;;;;;;;9.37;85.35;93405.69;515676;28;1119;-47
2023/05/01 00:31:11;;;;;;;32.93;13.17;;;;;;;9.38;85.05;93412.66;515971;28;896;-47
2023/05/01 00:31:27;;;;;;;48.17;13.40;;;;;;;9.38;85.17;93410.66;515998;28;845;-47
2023/05/01 00:31:42;;;;;;;72.53;13.07;;;;;;;9.42;84.91;93419.31;515985;28;1059;-47
2023/05/01 00:31:57;;;;;;;62.08;11.77;;;;;;;9.43;85.06;93409.03;514317;28;855;-48
2023/05/01 00:32:14;;;;;;;49.90;10.53;;;;;;;9.43;85.07;93403.53;515197;28;1115;-47
2023/05/01 00:32:29;;;;;;;41.08;10.30;;;;;;;9.43;85.15;93409.03;518003;28;830;-47
2023/05/01 00:32:44;;;;;;;31.17;10.00;;;;;;;9.32;85.15;93392.78;517911;28;785;-48
2023/05/01 00:33:00;;;;;;;35.13;10.17;;;;;;;9.44;85.07;93416.03;518110;28;821;-47
2023/05/01 00:33:16;;;;;;;43.25;11.55;;;;;;;9.42;84.98;93405.53;516784;28;1055;-48
2023/05/01 00:33:31;;;;;;;52.67;12.83;;;;;;;9.41;85.12;93417.84;514863;28;1812;-48
2023/05/01 00:33:47;;;;;;;45.05;12.20;;;;;;;9.42;84.84;93407.56;513978;28;1148;-48
2023/05/01 00:34:03;;;;;;;31.33;11.17;;;;;;;9.40;85.21;93404.63;514092;28;894;-47
2023/05/01 00:34:19;;;;;;;31.95;10.77;;;;;;;9.39;84.98;93408.66;514429;28;1608;-47
2023/05/01 00:34:34;;;;;;;40.85;11.32;;;;;;;9.36;85.03;93415.97;516028;28;857;-47
2023/05/01 00:34:50;;;;;;;41.07;11.53;;;;;;;9.29;84.87;93404.91;515873;28;1088;-47
2023/05/01 00:35:06;;;;;;;35.37;11.80;;;;;;;9.18;85.08;93401.16;515939;28;1599;-48
2023/05/01 00:35:21;;;;;;;28.23;11.68;;;;;;;9.11;85.36;93407.38;515472;28;903;-47
2023/05/01 00:35:36;;;;;;;21.45;10.48;;;;;;;8.98;85.37;93421.22;513897;28;1024;-48
2023/05/01 00:35:52;;;;;;;17.63;10.10;;;;;;;8.92;85.83;93414.38;513962;28;817;-47
2023/05/01 00:36:08;;;;;;;17.83;10.27;;;;;;;8.90;86.22;93414.91;513831;28;811;-47
2023/05/01 00:36:24;;;;;;;24.45;10.70;;;;;;;8.46;86.35;93363.72;513900;28;840;-48
2023/05/01 00:36:39;;;;;;;24.40;10.53;;;;;;;8.75;86.94;93414.78;513728;28;787;-49
2023/05/01 00:36:55;;;;;;;20.33;10.00;;;;;;;8.70;87.46;93412.16;513945;28;798;-48
2023/05/01 00:37:10;;;;;;;19.33;9.97;;;;;;;8.67;87.78;93416.72;513980;28;880;-48
2023/05/01 00:37:26;;;;;;;18.20;10.52;;;;;;;8.66;87.96;93412.53;514068;28;785;-47
2023/05/01 00:37:41;;;;;;;16.10;10.47;;;;;;;8.57;88.21;93412.25;514281;28;1187;-47
2023/05/01 00:37:57;;;;;;;14.48;10.07;;;;;;;8.53;88.73;93415.34;516000;28;1672;-49
2023/05/01 00:38:12;;;;;;;15.23;10.50;;;;;;;8.48;88.83;93412.69;515995;28;923;-47
2023/05/01 00:38:28;;;;;;;17.07;10.37;;;;;;;8.33;89.40;93422.28;515931;28;1069;-47
2023/05/01 00:38:45;;;;;;;16.23;9.87;;;;;;;8.35;89.93;93417.00;515097;28;1214;-46
2023/05/01 00:39:00;;;;;;;13.20;9.82;;;;;;;8.37;90.11;93421.94;514189;28;1665;-47
2023/05/01 00:39:16;;;;;;;13.75;9.65;;;;;;;8.16;90.47;93394.41;513763;28;1179;-47
2023/05/01 00:39:31;;;;;;;16.13;9.60;;;;;;;8.29;90.37;93415.66;514016;28;812;-47
2023/05/01 00:39:46;;;;;;;20.50;9.60;;;;;;;8.35;90.80;93424.50;513776;28;1243;-48
2023/05/01 00:40:02;;;;;;;25.00;9.77;;;;;;;8.39;91.02;93422.16;513696;28;856;-47
2023/05/01 00:40:17;;;;;;;30.13;10.33;;;;;;;8.32;90.71;93393.28;513633;28;1215;-47
2023/05/01 00:40:41;;;;;;;27.48;10.57;;;;;;;8.54;91.13;93413.31;513777;28;880;-49
2023/05/01 00:40:56;;;;;;;33.22;10.75;;;;;;;8.58;90.78;93413.69;513570;28;1351;-48
2023/05/01 00:41:11;;;;;;;30.58;11.40;;;;;;;8.62;90.48;93417.59;513778;28;841;-47
2023/05/01 00:41:27;;;;;;;33.37;11.37;;;;;;;8.61;90.34;93418.16;515371;28;1199;-46
2023/05/01 00:41:42;;;;;;;36.70;10.87;;;;;;;8.54;90.35;93416.06;514116;28;980;-47
2023/05/01 00:41:58;;;;;;;59.35;11.65;;;;;;;8.53;90.54;93412.59;513778;28;1192;-48
2023/05/01 00:42:13;;;;;;;84.60;12.10;;;;;;;8.56;90.90;93414.25;513915;28;1443;-47
2023/05/01 00:42:33;;;;;;;111.87;14.10;;;;;;;8.55;90.94;93418.28;513614;28;1215;-47
2023/05/01 00:42:49;;;;;;;153.93;13.95;;;;;;;8.58;90.98;93419.19;513778;28;825;-47
2023/05/01 00:43:04;;;;;;;137.13;13.27;;;;;;;8.61;91.23;93421.63;513890;28;1301;-48
2023/05/01 00:43:20;;;;;;;160.38;15.02;;;;;;;8.61;91.45;93415.38;513886;28;959;-48
2023/05/01 00:43:35;;;;;;;169.70;15.27;;;;;;;8.58;91.46;93414.44;513767;28;1972;-47
2023/05/01 00:43:51;;;;;;;142.05;13.35;;;;;;;8.56;91.44;93417.00;513908;28;1396;-49
2023/05/01 00:44:06;;;;;;;133.10;13.50;;;;;;;8.59;91.43;93418.69;513974;28;1086;-47
2023/05/01 00:44:21;;;;;;;120.72;13.00;;;;;;;8.63;91.23;93424.59;513878;28;844;-48
2023/05/01 00:44:37;;;;;;;127.37;13.57;;;;;;;8.67;91.58;93421.50;514015;28;774;-48
2023/05/01 00:44:52;;;;;;;139.10;13.50;;;;;;;8.70;91.34;93418.44;513917;28;881;-48
2023/05/01 00:45:08;;;;;;;154.27;14.98;;;;;;;8.76;91.20;93418.28;515114;28;1064;-48
2023/05/01 00:45:24;;;;;;;163.07;16.47;;;;;;;8.81;90.92;93420.91;515959;28;798;-48
2023/05/01 00:45:43;;;;;;;169.33;15.80;;;;;;;8.86;90.69;93417.25;514988;28;1294;-49
2023/05/01 00:45:58;;;;;;;159.13;16.75;;;;;;;8.90;90.66;93420.41;514880;28;2075;-49
2023/05/01 00:46:13;;;;;;;141.33;17.93;;;;;;;8.93;90.24;93424.84;515072;28;821;-48
2023/05/01 00:46:29;;;;;;;171.52;23.23;;;;;;;8.98;90.00;93426.00;513790;28;1064;-49
2023/05/01 00:46:44;;;;;;;199.73;25.13;;;;;;;8.95;89.99;93419.53;515444;28;1433;-49
2023/05/01 00:47:01;;;;;;;238.30;27.85;;;;;;;8.91;89.78;93418.41;515858;28;788;-48
2023/05/01 00:47:16;;;;;;;309.20;33.80;;;;;;;8.83;89.92;93420.38;515786;28;902;-49
2023/05/01 00:47:34;;;;;;;267.50;26.23;;;;;;;8.75;90.29;93417.53;515922;28;825;-48
2023/05/01 00:47:49;;;;;;;301.73;30.52;;;;;;;8.70;90.78;93421.19;515856;28;879;-50
2023/05/01 00:48:05;;;;;;;352.33;37.93;;;;;;;8.69;90.97;93416.94;515521;28;1134;-49
2023/05/01 00:48:20;;;;;;;318.98;35.92;;;;;;;8.67;90.69;93418.75;512512;28;881;-50
2023/05/01 00:48:36;;;;;;;300.30;31.27;;;;;;;8.63;90.88;93418.34;513861;28;795;-50
2023/05/01 00:48:51;;;;;;;313.35;32.88;;;;;;;8.63;91.23;93416.34;513746;28;1010;-49
2023/05/01 00:49:07;;;;;;;297.88;37.70;;;;;;;8.69;91.33;93427.19;511775;28;838;-49
2023/05/01 00:49:22;;;;;;;329.90;34.33;;;;;;;8.73;91.15;93428.34;511821;29;835;-48
2023/05/01 00:49:41;;;;;;;298.25;30.40;;;;;;;8.75;91.32;93422.31;511729;29;1081;-49
2023/05/01 00:49:56;;;;;;;180.13;23.58;;;;;;;8.77;91.01;93426.00;509801;28;1042;-48
2023/05/01 00:50:12;;;;;;;183.82;22.60;;;;;;;8.74;91.06;93421.56;510489;29;894;-48
2023/05/01 00:50:28;;;;;;;225.07;22.77;;;;;;;8.68;90.88;93426.47;511718;28;831;-50
2023/05/01 00:50:44;;;;;;;216.60;23.70;;;;;;;8.52;91.05;93407.59;511496;29;1359;-49
2023/05/01 00:51:01;;;;;;;170.33;21.27;;;;;;;8.64;91.15;93419.84;508589;29;986;-49
2023/05/01 00:51:16;;;;;;;140.65;18.10;;;;;;;8.65;91.28;93422.03;510633;29;1014;-48
2023/05/01 00:51:32;;;;;;;154.55;18.00;;;;;;;8.67;91.55;93424.25;509563;29;1635;-49
2023/05/01 00:51:52;;;;;;;141.20;16.00;;;;;;;8.66;91.44;93415.28;510533;29;869;-49
2023/05/01 00:52:08;;;;;;;113.07;12.65;;;;;;;8.67;91.59;93421.50;511762;29;947;-48
2023/05/01 00:52:24;;;;;;;132.82;14.50;;;;;;;8.66;91.37;93423.53;511924;29;865;-47
2023/05/01 00:52:40;;;;;;;131.65;15.75;;;;;;;8.62;91.57;93412.09;511732;29;1104;-47
2023/05/01 00:52:56;;;;;;;107.07;13.57;;;;;;;8.51;91.57;93428.88;513224;28;912;-48
2023/05/01 00:53:11;;;;;;;160.27;19.50;;;;;;;8.24;91.68;93395.22;515146;28;889;-48
2023/05/01 00:53:27;;;;;;;167.95;22.63;;;;;;;8.38;92.12;93420.69;515944;28;891;-48
2023/05/01 00:53:43;;;;;;;143.38;16.77;;;;;;;8.35;92.75;93422.50;515885;28;1555;-47
2023/05/01 00:54:00;;;;;;;153.57;16.33;;;;;;;8.36;92.82;93426.72;515560;28;1165;-48
2023/05/01 00:54:16;;;;;;;120.22;17.10;;;;;;;8.44;93.25;93428.81;515798;28;857;-48
2023/05/01 00:54:32;;;;;;;90.03;14.18;;;;;;;8.47;93.32;93431.22;515723;28;928;-47
2023/05/01 00:54:50;;;;;;;103.73;14.17;;;;;;;8.53;93.32;93428.34;515697;28;944;-47
2023/05/01 00:55:06;;;;;;;120.78;15.32;;;;;;;8.58;93.72;93417.19;515890;28;862;-48
2023/05/01 00:55:22;;;;;;;104.78;13.68;;;;;;;8.64;93.49;93426.06;515774;28;975;-48
2023/05/01 00:55:41;;;;;;;79.23;14.00;;;;;;;8.68;93.36;93426.47;515721;28;1196;-49
2023/05/01 00:55:57;;;;;;;87.72;14.23;;;;;;;8.73;93.16;93425.59;515881;28;1105;-48
2023/05/01 00:56:13;;;;;;;83.13;12.43;;;;;;;8.77;93.03;93428.03;515933;28;889;-48
2023/05/01 00:56:30;;;;;;;89.60;13.00;;;;;;;8.81;93.07;93425.66;515792;28;841;-47
2023/05/01 00:56:49;;;;;;;85.00;14.75;;;;;;;8.84;92.85;93422.56;515779;28;876;-48
2023/05/01 00:57:05;;;;;;;52.35;12.52;;;;;;;8.84;92.87;93417.06;513695;28;1099;-48
2023/05/01 00:57:21;;;;;;;50.90;11.73;;;;;;;8.90;92.76;93423.16;513800;28;1363;-47
2023/05/01 00:57:36;;;;;;;42.87;11.47;;;;;;;8.94;92.93;93420.81;513850;28;829;-49
2023/05/01 00:57:53;;;;;;;32.83;9.98;;;;;;;8.97;92.57;93428.00;512406;28;1115;-48
2023/05/01 00:58:10;;;;;;;39.10;10.65;;;;;;;8.99;92.68;93422.69;511734;29;1011;-48
2023/05/01 00:58:26;;;;;;;46.35;10.75;;;;;;;8.97;92.29;93416.25;513308;28;1218;-48
2023/05/01 00:58:42;;;;;;;46.33;9.93;;;;;;;9.06;92.48;93427.53;515254;28;1132;-48
2023/05/01 00:58:58;;;;;;;72.55;13.27;;;;;;;8.94;92.19;93407.03;515483;28;1193;-49
2023/05/01 00:59:14;;;;;;;73.15;12.77;;;;;;;9.10;91.87;93422.41;515858;28;884;-47
2023/05/01 00:59:29;;;;;;;39.88;9.10;;;;;;;9.11;91.81;93423.91;515806;28;837;-48
2023/05/01 00:59:45;;;;;;;56.25;11.13;;;;;;;9.13;91.65;93421.34;515819;28;875;-48
2023/05/01 01:00:01;;;;;;;79.35;12.40;;;;;;;9.14;91.67;93417.28;513826;28;1168;-48
2023/05/01 01:00:18;;;;;;;85.17;13.10;;;;;;;9.16;91.43;93422.25;513695;28;1076;-48
2023/05/01 01:00:33;;;;;;;76.43;13.77;;;;;;;9.18;91.38;93420.44;513694;28;857;-48
2023/05/01 01:00:49;;;;;;;55.55;10.73;;;;;;;9.21;91.32;93421.38;514514;28;881;-48
2023/05/01 01:01:05;;;;;;;54.57;11.10;;;;;;;9.08;91.29;93400.19;515827;28;1514;-48
2023/05/01 01:01:20;;;;;;;63.83;13.00;;;;;;;9.21;90.93;93415.13;515825;28;800;-48
2023/05/01 01:01:36;;;;;;;79.07;12.43;;;;;;;9.24;90.88;93425.06;515826;28;1121;-48
2023/05/01 01:01:51;;;;;;;81.65;12.60;;;;;;;9.25;90.73;93421.06;514404;28;932;-49
2023/05/01 01:02:06;;;;;;;91.73;13.23;;;;;;;9.24;90.74;93417.56;515722;28;881;-49
2023/05/01 01:02:22;;;;;;;105.17;14.17;;;;;;;9.25;90.91;93421.78;515760;28;879;-47
2023/05/01 01:02:37;;;;;;;96.13;14.93;;;;;;;9.27;90.71;93419.22;515683;28;815;-49
2023/05/01 01:02:53;;;;;;;87.07;13.60;;;;;;;9.30;90.44;93418.13;515772;28;908;-49
2023/05/01 01:03:10;;;;;;;100.13;13.35;;;;;;;9.31;90.19;93421.63;515685;28;1120;-48
2023/05/01 01:03:26;;;;;;;112.97;13.85;;;;;;;9.25;89.26;93430.03;515763;28;888;-48
2023/05/01 01:03:41;;;;;;;87.28;11.10;;;;;;;9.12;88.57;93414.34;515654;28;1974;-48
2023/05/01 01:03:57;;;;;;;62.33;9.48;;;;;;;9.09;88.28;93422.97;515347;28;1636;-49
2023/05/01 01:04:12;;;;;;;63.97;11.33;;;;;;;9.01;88.34;93428.41;515714;28;789;-48
2023/05/01 01:04:30;;;;;;;58.90;11.53;;;;;;;9.01;88.19;93428.41;515671;28;835;-48
2023/05/01 01:04:46;;;;;;;72.78;13.75;;;;;;;9.03;88.41;93434.09;515523;28;1150;-49
2023/05/01 01:05:03;;;;;;;88.32;14.55;;;;;;;9.02;88.24;93424.38;515837;28;786;-49
2023/05/01 01:05:20;;;;;;;85.22;11.93;;;;;;;9.05;88.60;93422.56;515810;28;955;-49
2023/05/01 01:05:41;;;;;;;97.55;12.20;;;;;;;9.04;88.18;93427.31;515899;28;900;-49
2023/05/01 01:06:03;;;;;;;90.40;11.77;;;;;;;9.01;88.36;93436.66;515738;28;916;-49
2023/05/01 01:06:30;;;;;;;75.35;12.00;;;;;;;9.02;88.25;93426.38;515014;28;1478;-48
2023/05/01 01:07:13;;;;;;;58.08;10.88;;;;;;;8.97;87.83;93436.25;512796;28;851;-48
2023/05/01 01:07:49;;;;;;;91.40;13.65;;;;;;;8.97;87.87;93428.00;511491;29;877;-49
2023/05/01 01:08:12;;;;;;;66.93;10.63;;;;;;;9.01;87.42;93427.66;511670;29;943;-48
2023/05/01 01:08:29;;;;;;;65.60;9.50;;;;;;;8.82;87.28;93394.84;511763;29;809;-48
2023/05/01 01:09:06;;;;;;;79.55;11.82;;;;;;;8.99;87.35;93427.44;514246;28;1645;-49
2023/05/01 01:09:41;;;;;;;59.35;11.82;;;;;;;9.00;87.30;93432.44;514577;28;1115;-49
2023/05/01 01:10:08;;;;;;;91.75;11.73;;;;;;;9.00;87.38;93428.94;515737;28;900;-48
2023/05/01 01:10:32;;;;;;;154.40;14.13;;;;;;;8.94;87.42;93431.81;513779;28;850;-48
2023/05/01 01:11:24;;;;;;;206.15;15.85;;;;;;;8.98;87.55;93429.50;512787;28;1136;-49
2023/05/01 01:11:49;;;;;;;155.38;15.95;;;;;;;9.01;87.31;93436.66;511494;29;1253;-48
2023/05/01 01:12:26;;;;;;;163.07;15.75;;;;;;;9.05;87.07;93430.81;511583;29;867;-49
2023/05/01 01:12:47;;;;;;;209.98;17.25;;;;;;;9.08;86.98;93424.97;507676;29;824;-48
2023/05/01 01:13:08;;;;;;;154.50;14.27;;;;;;;9.11;86.69;93434.16;507730;29;829;-47
2023/05/01 01:13:31;;;;;;;133.27;14.82;;;;;;;9.10;86.73;93422.41;507726;29;814;-48
2023/05/01 01:14:08;;;;;;;122.50;14.07;;;;;;;9.03;86.69;93425.84;512710;28;1022;-48
2023/05/01 01:14:38;;;;;;;110.55;13.25;;;;;;;9.10;86.79;93432.69;509685;28;924;-47
2023/05/01 01:15:14;;;;;;;136.57;16.25;;;;;;;9.12;87.10;93430.13;511707;29;866;-48
2023/05/01 01:15:35;;;;;;;125.63;13.18;;;;;;;9.12;86.75;93425.34;509805;29;838;-48
2023/05/01 01:16:05;;;;;;;105.80;11.10;;;;;;;9.10;86.97;93427.19;508233;28;1647;-48
2023/05/01 01:16:32;;;;;;;65.97;10.27;;;;;;;9.02;86.65;93423.63;513118;28;927;-48
2023/05/01 01:16:58;;;;;;;56.78;9.15;;;;;;;9.13;86.79;93426.84;512650;28;1179;-49
2023/05/01 01:17:22;;;;;;;58.70;9.18;;;;;;;9.12;86.48;93425.34;511579;29;830;-48
2023/05/01 01:17:41;;;;;;;73.63;9.98;;;;;;;9.07;86.52;93434.50;509587;29;979;-48
2023/05/01 01:18:12;;;;;;;79.82;10.25;;;;;;;9.07;86.31;93440.00;509681;29;1570;-48
2023/05/01 01:18:35;;;;;;;73.57;9.70;;;;;;;9.06;86.44;93430.28;511696;28;826;-49
2023/05/01 01:19:12;;;;;;;70.07;11.13;;;;;;;9.06;86.10;93433.03;513697;28;863;-48
2023/05/01 01:19:52;;;;;;;105.30;11.18;;;;;;;9.16;85.54;93433.28;513816;28;897;-48
2023/05/01 01:20:14;;;;;;;117.93;12.40;;;;;;;9.12;85.12;93427.38;513852;28;861;-48
2023/05/01 01:20:49;;;;;;;94.72;11.45;;;;;;;9.07;84.89;93436.53;513858;28;867;-49
2023/05/01 01:21:07;;;;;;;77.30;10.20;;;;;;;8.99;85.06;93432.97;513587;28;880;-48
2023/05/01 01:21:30;;;;;;;63.88;9.73;;;;;;;8.81;85.10;93437.44;515485;28;953;-48
2023/05/01 01:21:49;;;;;;;76.00;9.95;;;;;;;8.64;85.45;93434.31;511772;29;878;-48
2023/05/01 01:22:10;;;;;;;71.75;10.02;;;;;;;8.45;86.09;93420.00;511746;29;975;-49
2023/05/01 01:22:26;;;;;;;65.10;11.27;;;;;;;8.49;86.77;93436.91;511638;29;1053;-48
2023/05/01 01:22:46;;;;;;;72.30;11.80;;;;;;;8.40;87.18;93431.91;509717;29;1207;-48
2023/05/01 01:23:20;;;;;;;60.60;11.40;;;;;;;8.31;87.99;93437.84;507761;29;850;-48
2023/05/01 01:23:41;;;;;;;64.65;11.57;;;;;;;8.26;88.63;93430.44;509690;29;1978;-48
2023/05/01 01:24:17;;;;;;;79.60;11.48;;;;;;;8.25;89.16;93431.72;510421;28;1226;-48
2023/05/01 01:24:51;;;;;;;78.35;11.52;;;;;;;8.31;89.41;93440.59;513652;28;898;-48
2023/05/01 01:25:18;;;;;;;71.18;11.38;;;;;;;8.22;89.34;93441.03;513872;28;825;-49